• Join FlightAware (Why Join?)
  • Login
  • US Flag 
12:27PM EDT


 

Airport Tracker/Info


-or-


 

Live Flight TrackerFlight Track Log ✈ FLG4262 ✈ 19-Nov-2013 ✈ KBGM - KDTW

Flight Track Log - Related Links

Times and Time Zones

All times are in EST time to prevent confusion due to time zone crossing. See the FLG4262 flight status page for this flight to view local times or setup timezone preferences in your user account.

Time Position Orientation Groundspeed Altitude Reporting Facility
EST Latitude Longitude Course Direction KTS MPH feet Rate Location/Type
05:31PM 42.2642 -76.1264 290° West 224 258 7,500  Level Cleveland Center
05:32PM 42.2900 -76.2164 291° West 248 285 10,000 1,920 Climbing Cleveland Center
05:33PM 42.3294 -76.3600 290° West 335 386 11,500 2,040 Climbing Cleveland Center
05:34PM 42.3644 -76.4872 290° West 346 398 14,300 2,460 Climbing Cleveland Center
05:35PM 42.3967 -76.6033 291° West 334 384 16,700 1,980 Climbing Cleveland Center
05:37PM 42.4286 -76.7203 290° West 332 382 18,500 1,800 Climbing Cleveland Center
05:38PM 42.4594 -76.8372 290° West 330 380 20,500 1,680 Climbing Cleveland Center
05:39PM 42.4911 -76.9531 290° West 331 381 22,000 1,440 Climbing Cleveland Center
05:40PM 42.5219 -77.0703 290° West 330 380 23,500 1,260 Climbing Cleveland Center
05:41PM 42.5594 -77.2117 290° West 334 384 24,700 960 Climbing Cleveland Center
05:42PM 42.5911 -77.3331 290° West 340 391 25,600 780 Climbing Cleveland Center
05:43PM 42.6228 -77.4519 290° West 346 398 26,400 780 Climbing Cleveland Center
05:44PM 42.6556 -77.5761 290° West 349 402 27,300 840 Climbing Cleveland Center
05:45PM 42.6875 -77.6997 289° West 349 402 28,200 780 Climbing Cleveland Center
05:46PM 42.7256 -77.8450 290° West 360 414 29,000 660 Climbing Cleveland Center
05:47PM 42.7583 -77.9722 289° West 358 412 29,600 480 Climbing Cleveland Center
05:48PM 42.7908 -78.0997 289° West 359 413 30,000 180 Climbing Cleveland Center
05:49PM 42.8233 -78.2283 289° West 361 415 30,000  Level Cleveland Center
05:50PM 42.8608 -78.3797 289° West 352 405 30,000  Level Cleveland Center
05:51PM 42.8922 -78.5042 289° West 349 402 30,000  Level Cleveland Center
05:52PM 42.9236 -78.6267 289° West 343 395 30,000  Level Cleveland Center
05:53PM 42.9128 -78.7581 264° West 353 406 30,000  Level Cleveland Center
05:54PM 42.8936 -78.8906 259° West 356 410 30,000  Level Cleveland Center
05:55PM 42.8703 -79.0481 259° West 355 409 30,000  Level Cleveland Center
05:56PM 42.8519 -79.1775 259° West 350 403 30,000  Level Cleveland Center
05:57PM 42.8328 -79.3078 259° West 351 404 30,000  Level Cleveland Center
05:58PM 42.8131 -79.4378 258° West 352 405 30,000  Level Cleveland Center
05:59PM 42.7928 -79.5675 258° West 350 403 30,000 -420 Level Cleveland Center
06:00PM 42.7731 -79.6997 259° West 358 412 29,200 -1,020 Descending Cleveland Center
06:01PM 42.7497 -79.8700 259° West 383 441 28,000 -600 Descending Cleveland Center
06:02PM 42.7442 -79.9983 267° West 390 449 28,000  Level Cleveland Center
06:03PM 42.7367 -80.1683 267° West 384 442 28,000  Level Cleveland Center
06:04PM 42.7308 -80.3139 267° West 384 442 28,000  Level Cleveland Center
06:05PM 42.7247 -80.4589 267° West 382 440 28,000  Level Cleveland Center
06:07PM 42.7186 -80.6047 267° West 384 442 28,000  Level Cleveland Center
06:08PM 42.7117 -80.7533 266° West 391 450 28,000 -360 Level Cleveland Center
06:09PM 42.7050 -80.9017 267° West 392 451 27,300 -960 Descending Cleveland Center
06:10PM 42.6853 -81.0722 261° West 390 449 26,100 -1,080 Descending Cleveland Center
06:11PM 42.6681 -81.2211 261° West 394 453 25,100 -1,020 Descending Cleveland Center
06:12PM 42.6511 -81.3675 261° West 392 451 24,100 -1,020 Descending Cleveland Center
06:13PM 42.6342 -81.5108 261° West 385 443 23,100 -1,020 Descending Cleveland Center
06:14PM 42.6175 -81.6539 261° West 382 440 22,100 -1,020 Descending Cleveland Center
06:15PM 42.6011 -81.7883 261° West 377 434 21,100 -1,020 Descending Cleveland Center
06:16PM 42.5811 -81.9531 261° West 370 426 20,000 -1,140 Descending Cleveland Center
06:17PM 42.5650 -82.0894 261° West 367 422 18,800 -1,380 Descending Cleveland Center
06:18PM 42.5492 -82.2194 261° West 356 410 17,200 -1,740 Descending Cleveland Center
06:18PM 42.5453 -82.2456 259° West 350 403 16,800 -1,920 Descending Cleveland Center
06:19PM 42.5325 -82.3492 261° West 352 405 15,200 -2,040 Descending Cleveland Center
06:19PM 42.5253 -82.4186 262° West 352 405 14,100 -2,040 Descending Cleveland Center
06:20PM 42.5153 -82.4794 257° West 351 404 13,100 -1,980 Descending Cleveland Center
06:20PM 42.5056 -82.5492 259° West 354 407 12,100 -1,380 Descending Cleveland Center
06:21PM 42.4872 -82.6053 246° West 352 405 11,700 -1,140 Descending Cleveland Center
06:21PM 42.4689 -82.6547 243° Southwest 319 367 11,100 -1,380 Descending Cleveland Center
06:22PM 42.4431 -82.7300 245° Southwest 310 357 10,300 -1,020 Descending Cleveland Center
06:22PM 42.4344 -82.7547 245° Southwest 277 319 10,100 -1,260 Descending Cleveland Center
06:23PM 42.4231 -82.8183 256° West 259 298 9,000 -1,740 Descending Cleveland Center
06:23PM 42.4186 -82.8544 261° West 236 272 8,200 -1,980 Descending Cleveland Center
06:24PM 42.4144 -82.9058 264° West 239 275 7,000 -1,860 Descending Cleveland Center
06:24PM 42.4106 -82.9353 260° West 239 275 6,500 -1,020 Descending Cleveland Center
06:25PM 42.4064 -82.9914 264° West 234 269 6,000 -540 Descending Cleveland Center
06:25PM 42.4042 -83.0219 264° West 228 262 6,000 -780 Level Cleveland Center
06:26PM 42.3981 -83.0781 262° West 232 267 5,200 -1,200 Descending Cleveland Center
06:27PM 42.3942 -83.1281 264° West 231 266 4,600 -1,020 Descending Cleveland Center
06:27PM 42.3908 -83.1633 263° West 232 267 4,200 -660 Descending Cleveland Center
06:27PM 42.3764 -83.1961 239° Southwest 199 229 4,000 -300 Descending Cleveland Center
06:28PM 42.3517 -83.2336 228° Southwest 200 230 3,900 -420 Descending Cleveland Center
06:28PM 42.3369 -83.2472 214° Southwest 193 222 3,600 -1,020 Descending Cleveland Center
06:29PM 42.3067 -83.2717 211° Southwest 195 224 2,900 -1,140 Descending Cleveland Center
06:30PM 42.2942 -83.2836 215° Southwest 164 189 2,500 -1,200 Descending Cleveland Center
06:30PM 42.2725 -83.3044 215° Southwest 169 194 1,700 -1,020 Descending Cleveland Center
06:31PM 42.2606 -83.3128 207° Southwest 128 147 1,500 -720 Descending Cleveland Center
06:31PM 42.2411 -83.3272 209° Southwest 142 163 1,000 -660 Descending Cleveland Center
06:33PM 42.2124 -83.3534 246° West  Level Estimated
06:40PM 42.2124 -83.3534 246° West  Level Estimated
06:41PM 42.2124 -83.3534 246° West  Level Estimated